KOAJ/OAJ METAR and TAF weather

Enter ICAO airport designator
Station Type Date Time Source
KOAJ METAR 2021/05/14 22:56 UTC NOAA

KOAJ 142256Z 05006KT 10SM CLR 21/02 A3020 RMK AO2 SLP230 T02110017


Station Type Date Time Source
KOAJ Decoded METAR 2021/05/14 22:56 UTC NOAA

Jacksonville, Albert J Ellis Airport, NC, United States (KOAJ) 34-50N 077-37W
May 14, 2021 - 06:56 PM EDT / 2021.05.14 2256 UTC
Wind: from the NE (050 degrees) at 7 MPH (6 KT):0
Visibility: 10 mile(s):0
Sky conditions: clear
Temperature: 70.0 F (21.1 C)
Dew Point: 35.1 F (1.7 C)
Relative Humidity: 27%
Pressure (altimeter): 30.2 in. Hg (1022 hPa)
ob: KOAJ 142256Z 05006KT 10SM CLR 21/02 A3020 RMK AO2 SLP230 T02110017
cycle: 23

Station Type Date Time Source
KOAJ TAF 2021/05/14 18:21 UTC NOAA

TAF KOAJ 141720Z 1418/1518 04007G15KT P6SM FEW080 FEW250
FM142300 06004KT P6SM FEW250
AMD LTD TO CLD VIS AND WIND

Example: see airport list